Latest Weather Observations for Inverell RS

IDN60801

Issued at 3:34 pm EDT Saturday 20 December 2014 (issued every 30 minutes, with the page automatically refreshed every 10 minutes)

About weather observations | Map of weather stations | Latest weather observations for NSW | Other Formats
Station Details ID: 056018 Name: INVERELL RESEARCH CENTRE Lat: -29.78 Lon: 151.08 Height: 664.0 m
Data from the previous 72 hours. | See also: Recent months at Inverell RS
Date/Time
EDT
Temp
°C
App
Temp
°C
Dew
Point
Rel
Hum
%
Delta-T
°C
Wind Press
QNH
hPa
Press
MSL
hPa
Rain
since 9 am
mm
Dir
 
Spd
km/h
Gust
km/h
Spd
kts
Gust
kts
20/03:30pm 28.9 24.1 5.4 22 12.6 NNW 20 28 11 15 1014.5 - 0.0
20/03:00pm 28.0 25.0 7.6 27 11.3 NNW 13 17 7 9 1014.8 1011.7 0.0
20/02:30pm 27.3 24.3 7.8 29 10.8 NW 13 20 7 11 1015.2 - 0.0
20/02:00pm 27.7 23.9 7.7 28 11.1 NW 17 28 9 15 1015.6 - 0.0
20/01:30pm 27.5 24.7 8.4 30 10.7 N 13 22 7 12 1016.1 - 0.0
20/01:00pm 27.8 25.0 8.6 30 10.8 NNE 13 20 7 11 1016.5 - 0.0
20/12:30pm 28.0 25.2 8.7 29 10.9 N 13 26 7 14 1016.9 - 0.0
20/12:00pm 26.5 25.1 8.9 33 9.9 NNW 6 17 3 9 1017.2 1014.0 0.0
20/11:30am 25.7 23.4 8.9 34 9.4 N 11 19 6 10 1017.5 - 0.0
20/11:00am 25.5 23.2 11.7 42 8.1 N 15 24 8 13 1017.4 - 0.0
20/10:30am 24.6 22.4 12.2 46 7.3 NNE 15 24 8 13 1017.4 - 0.0
20/10:00am 24.2 22.0 12.1 46 7.1 NNE 15 24 8 13 1017.4 - 0.0
20/09:30am 23.8 22.1 12.4 48 6.7 N 13 19 7 10 1017.4 - 0.0
20/09:00am 22.0 19.6 12.6 55 5.5 ENE 17 22 9 12 1017.6 1014.4 0.2
20/08:30am 21.3 19.1 13.2 60 4.8 ENE 17 24 9 13 1017.4 - 0.2
20/08:00am 20.0 18.2 13.2 65 4.0 NE 15 22 8 12 1017.1 - 0.2
20/07:30am 18.8 18.3 13.7 72 3.0 NE 9 13 5 7 1016.8 - 0.2
20/07:00am 17.6 17.0 13.5 77 2.4 NE 9 11 5 6 1016.5 - 0.2
20/06:30am 16.6 15.8 12.9 79 2.1 NNE 9 11 5 6 1016.3 - 0.2
20/06:00am 16.1 15.3 12.8 81 1.9 ENE 9 11 5 6 1015.9 1012.6 0.2
20/05:30am 16.1 15.6 12.8 81 1.9 ENE 7 11 4 6 1015.5 - 0.2
20/05:00am 15.7 15.3 13.1 84 1.5 ENE 7 11 4 6 1015.3 - 0.2
20/04:30am 16.1 15.0 13.1 82 1.7 E 11 15 6 8 1015.1 - 0.2
20/04:00am 15.6 14.5 13.0 84 1.5 E 11 15 6 8 1015.0 - 0.2
20/03:30am 16.2 15.2 13.4 83 1.6 E 11 17 6 9 1015.1 - 0.2
20/03:00am 16.3 15.7 13.4 83 1.7 ESE 9 13 5 7 1015.2 1012.0 0.2
20/02:30am 17.0 16.8 13.6 80 2.0 ESE 7 11 4 6 1015.4 - 0.2
20/02:00am 16.6 15.8 12.9 79 2.1 SE 9 11 5 6 1015.5 - 0.2
20/01:30am 17.1 16.3 12.9 76 2.4 ESE 9 11 5 6 1015.6 - 0.2
20/01:00am 17.6 16.6 12.2 70 3.1 SSE 9 13 5 7 1015.9 - 0.2
20/12:30am 16.9 14.0 6.7 51 5.2 SSE 11 15 6 8 1016.1 - 0.2
20/12:00am 20.4 15.8 -1.2 23 9.7 SW 13 17 7 9 1015.8 1012.5 0.2
 
Date/Time
EDT
Temp
°C
App
Temp
°C
Dew
Point
Rel
Hum
%
Delta-T
°C
Wind Press
QNH
hPa
Press
MSL
hPa
Rain
since 9 am
mm
Dir
 
Spd
km/h
Gust
km/h
Spd
kts
Gust
kts
19/11:30pm 21.5 17.4 -2.9 19 10.7 SW 9 17 5 9 1015.8 - 0.2
19/11:00pm 22.3 18.6 -3.3 18 11.2 SW 7 11 4 6 1015.6 - 0.2
19/10:30pm 21.5 18.2 -0.9 22 10.2 W 6 9 3 5 1015.4 - 0.2
19/10:00pm 21.2 17.4 -0.4 23 9.9 WNW 9 13 5 7 1015.1 - 0.2
19/09:30pm 20.9 17.9 0.5 25 9.5 NW 6 9 3 5 1014.7 - 0.2
19/09:00pm 22.1 19.1 1.1 25 10.0 WNW 6 9 3 5 1014.5 1011.2 0.2
19/08:30pm 24.3 20.5 -1.1 18 11.8 SSW 9 15 5 8 1014.1 - 0.2
19/08:00pm 24.8 21.5 0.0 19 11.8 NW 7 13 4 7 1013.6 - 0.2
19/07:30pm 25.9 22.2 0.1 18 12.4 WNW 9 13 5 7 1013.2 - 0.2
19/07:00pm 27.7 23.7 -1.9 14 13.9 W 9 13 5 7 1012.8 - 0.2
19/06:30pm 28.5 23.7 -2.5 13 14.5 WNW 13 24 7 13 1012.5 - 0.2
19/06:00pm 29.2 25.1 0.1 15 14.3 WSW 11 19 6 10 1012.1 1008.9 0.2
19/05:30pm 29.4 24.8 1.4 16 14.1 W 15 30 8 16 1012.0 - 0.2
19/05:00pm 29.3 24.8 0.0 15 14.4 WNW 13 22 7 12 1011.9 - 0.2
19/04:30pm 29.4 24.5 -0.2 14 14.5 W 15 32 8 17 1012.0 - 0.2
19/04:00pm 29.5 24.9 1.6 16 14.1 W 15 32 8 17 1012.3 - 0.2
19/03:30pm 29.0 24.2 4.4 21 13.0 WSW 19 33 10 18 1012.5 - 0.2
19/03:00pm 29.0 24.8 7.4 25 12.0 W 19 43 10 23 1012.6 1009.4 0.2
19/02:30pm 29.2 25.5 8.0 26 11.9 W 17 33 9 18 1013.0 - 0.2
19/02:00pm 28.8 25.4 7.6 26 11.8 W 15 26 8 14 1013.4 - 0.2
19/01:30pm 27.4 24.0 7.7 28 10.9 WSW 15 37 8 20 1013.6 - 0.2
19/01:00pm 27.0 23.3 6.5 27 11.1 W 15 28 8 15 1014.1 - 0.2
19/12:30pm 26.7 21.9 8.7 32 10.1 W 24 28 13 15 1014.3 - 0.2
19/12:00pm 25.6 24.3 13.7 47 7.2 NW 13 20 7 11 1014.4 1011.1 0.2
19/11:30am 24.1 23.5 15.6 59 5.3 N 13 19 7 10 1014.5 - 0.2
19/11:00am 23.1 21.8 14.9 60 5.0 N 15 24 8 13 1014.7 - 0.2
19/10:30am 21.7 21.7 15.3 67 3.9 NNW 9 15 5 8 1014.9 - 0.0
19/10:00am 21.3 21.2 16.1 72 3.2 N 11 19 6 10 1015.1 - 0.0
19/09:30am 19.9 19.7 15.8 77 2.5 N 11 15 6 8 1015.2 - 0.0
19/09:00am 18.7 18.6 14.9 78 2.3 N 9 13 5 7 1015.3 1012.1 5.8
19/08:30am 16.9 16.7 13.5 80 2.0 NNE 7 9 4 5 1015.3 - 5.8
19/08:00am 16.3 17.3 13.2 82 1.8 CALM 0 9 0 5 1015.3 - 5.8
19/07:30am 15.5 15.2 12.7 83 1.6 ESE 6 7 3 4 1015.2 - 5.8
19/07:00am 14.9 15.7 12.4 85 1.4 CALM 0 0 0 0 1015.0 - 5.8
19/06:30am 14.3 14.9 12.0 86 1.3 CALM 0 7 0 4 1014.7 - 5.8
19/06:00am 13.7 14.2 11.5 86 1.2 CALM 0 0 0 0 1014.4 1011.1 5.8
19/05:30am 13.7 13.8 11.5 86 1.2 SE 2 7 1 4 1013.9 - 5.8
19/05:00am 14.1 13.2 11.2 83 1.6 SSE 7 9 4 5 1013.8 - 5.8
19/04:30am 14.2 13.3 11.3 83 1.6 SSE 7 9 4 5 1013.7 - 5.8
19/04:00am 14.3 13.6 11.4 83 1.6 S 6 9 3 5 1013.6 - 5.8
19/03:30am 15.2 15.3 11.6 79 2.0 WNW 2 7 1 4 1013.7 - 5.8
19/03:00am 14.8 14.2 11.6 81 1.8 W 6 7 3 4 1013.7 1010.6 5.8
19/02:30am 15.0 14.2 11.2 78 2.1 WNW 6 7 3 4 1013.9 - 5.8
19/02:00am 16.0 16.2 10.7 71 2.9 CALM 0 0 0 0 1013.9 - 5.8
19/01:30am 17.3 15.8 10.4 64 3.8 NNW 9 13 5 7 1013.8 - 5.8
19/01:00am 16.3 16.3 11.1 71 2.9 E 2 7 1 4 1014.1 - 5.8
19/12:30am 17.1 15.6 12.0 72 2.9 N 11 13 6 7 1013.7 - 5.8
19/12:00am 17.6 17.6 12.4 71 3.0 NE 4 7 2 4 1013.7 1010.5 5.8
 
Date/Time
EDT
Temp
°C
App
Temp
°C
Dew
Point
Rel
Hum
%
Delta-T
°C
Wind Press
QNH
hPa
Press
MSL
hPa
Rain
since 9 am
mm
Dir
 
Spd
km/h
Gust
km/h
Spd
kts
Gust
kts
18/11:30pm 18.0 18.4 12.4 70 3.2 SSE 2 7 1 4 1013.7 - 5.8
18/11:00pm 18.5 17.9 12.4 67 3.5 NNW 7 11 4 6 1013.8 - 5.8
18/10:30pm 18.9 19.7 12.5 66 3.7 CALM 0 0 0 0 1013.7 - 5.8
18/10:00pm 19.3 19.8 12.8 66 3.8 NE 2 7 1 4 1013.6 - 5.8
18/09:30pm 20.2 19.3 10.8 54 5.3 N 6 7 3 4 1013.3 - 5.8
18/09:00pm 21.5 19.3 8.0 42 7.3 NW 9 13 5 7 1013.2 1009.9 5.8
18/08:30pm 21.3 20.9 9.8 48 6.4 W 2 7 1 4 1012.5 - 5.8
18/08:00pm 21.7 20.8 9.4 45 6.8 W 4 11 2 6 1012.9 - 5.8
18/07:30pm 20.9 23.5 19.2 90 1.1 NNW 4 7 2 4 1012.7 - 5.6
18/07:00pm 20.9 23.7 18.9 88 1.3 S 2 7 1 4 1012.1 - 5.6
18/06:30pm 20.9 23.3 18.9 88 1.3 NNW 4 7 2 4 1011.7 - 5.6
18/06:24pm 20.9 - 18.6 87 1.5 - - - - - 1011.4 - -
18/06:00pm 20.9 22.6 18.6 87 1.5 NNE 7 11 4 6 1011.2 - 5.6
18/05:30pm 21.0 23.7 18.7 87 1.5 E 2 7 1 4 1010.7 - 5.6
18/05:00pm 20.8 22.5 18.5 87 1.5 SE 7 9 4 5 1010.4 - 5.6
18/04:30pm 20.5 21.2 18.0 85 1.6 S 11 19 6 10 1010.4 - 5.6
18/04:00pm 19.8 20.2 18.2 90 1.0 NNW 13 24 7 13 1010.3 - 5.6
18/03:30pm 19.7 17.3 16.3 81 2.1 WNW 24 44 13 24 1011.3 - 4.6
18/03:10pm 20.6 18.9 18.1 85 1.6 WNW 24 50 13 27 1010.9 - 2.4
18/03:00pm 21.6 18.2 17.8 79 2.4 N 32 37 17 20 1008.6 1005.3 0.8
18/02:59pm 21.6 18.2 17.8 79 2.4 N 32 78 17 42 1008.6 - 0.8
18/02:58pm 21.3 12.9 16.7 75 2.9 N 56 78 30 42 1008.1 - 0.6
18/02:57pm 21.8 12.0 15.5 67 3.9 NNW 61 78 33 42 1008.1 - 0.6
18/02:56pm 21.8 12.8 15.5 67 3.9 NNW 57 78 31 42 1008.1 - 0.6
18/02:54pm 26.4 21.5 14.2 47 7.5 NW 33 72 18 39 1007.8 - 0.2
18/02:52pm 27.7 24.4 16.0 49 7.4 NW 28 63 15 34 1007.8 - 0.2
18/02:30pm 31.0 27.7 14.0 35 10.6 NW 24 39 13 21 1007.2 - 0.2
18/02:00pm 31.5 27.3 13.6 33 11.1 NNW 28 39 15 21 1008.4 - 0.2
18/01:30pm 32.1 29.2 15.1 35 10.8 NNW 24 37 13 20 1009.1 - 0.2
18/01:00pm 31.5 29.2 14.6 36 10.6 N 20 32 11 17 1009.9 - 0.2
18/12:30pm 31.2 29.5 15.7 39 9.9 N 19 37 10 20 1010.3 - 0.2
18/12:00pm 30.1 28.4 15.8 42 9.1 NNW 19 28 10 15 1010.5 1007.3 0.2
18/11:30am 29.0 26.6 15.3 43 8.6 N 22 33 12 18 1011.2 - 0.2
18/11:00am 28.2 26.9 16.8 50 7.3 N 19 28 10 15 1011.6 - 0.2
18/10:30am 26.1 24.0 16.3 54 6.2 N 22 32 12 17 1012.0 - 0.2
18/10:00am 25.8 24.2 16.5 56 5.9 N 20 32 11 17 1012.0 - 0.2
18/09:30am 26.2 23.6 16.8 56 6.0 N 26 35 14 19 1011.9 - 0.0
18/09:00am 24.9 23.3 16.5 59 5.3 N 20 32 11 17 1011.8 1008.5 1.0
18/08:30am 24.4 24.1 17.4 65 4.5 N 15 26 8 14 1012.8 - 1.0
18/08:00am 23.0 23.5 17.5 71 3.5 NE 11 17 6 9 1012.7 - 1.0
18/07:30am 21.9 22.2 17.1 74 3.0 NE 11 15 6 8 1012.5 - 1.0
18/07:00am 21.3 21.9 16.7 75 2.9 ENE 9 11 5 6 1012.2 - 1.0
18/06:30am 19.9 20.8 16.7 82 2.0 ESE 7 11 4 6 1012.0 - 1.0
18/06:00am 20.2 20.2 16.2 78 2.5 NNE 11 15 6 8 1011.7 1008.3 1.0
18/05:30am 20.2 20.3 15.5 74 2.9 NNE 9 15 5 8 1011.2 - 1.0
18/05:00am 19.6 19.1 15.0 75 2.8 NE 11 15 6 8 1010.5 - 1.0
18/04:30am 20.0 19.5 14.9 72 3.1 NNE 11 17 6 9 1010.4 - 1.0
18/04:00am 20.1 19.5 14.6 70 3.3 NE 11 15 6 8 1009.8 - 1.0
18/03:30am 19.9 20.0 14.0 69 3.5 NNE 6 9 3 5 1010.1 - 1.0
18/03:00am 20.7 19.8 13.8 64 4.1 N 11 15 6 8 1010.7 1007.4 1.0
18/02:30am 21.0 20.3 13.2 61 4.6 ENE 9 13 5 7 1010.3 - 1.0
18/02:00am 21.0 21.1 14.0 64 4.2 E 6 13 3 7 1009.8 - 1.0
18/01:30am 20.8 20.8 13.7 64 4.2 SE 6 9 3 5 1009.5 - 1.0
18/01:00am 21.7 21.5 13.7 60 4.8 NNW 7 13 4 7 1009.9 - 1.0
18/12:30am 23.6 23.2 13.0 51 6.3 NE 7 15 4 8 1010.1 - 1.0
18/12:00am 23.3 21.5 12.2 49 6.5 SSW 13 19 7 10 1010.5 1007.2 1.0
 
Date/Time
EDT
Temp
°C
App
Temp
°C
Dew
Point
Rel
Hum
%
Delta-T
°C
Wind Press
QNH
hPa
Press
MSL
hPa
Rain
since 9 am
mm
Dir
 
Spd
km/h
Gust
km/h
Spd
kts
Gust
kts
17/11:30pm 24.8 23.5 11.4 43 7.8 SSW 9 15 5 8 1011.3 - 0.6
17/11:00pm 25.0 21.5 10.3 39 8.4 SSW 19 28 10 15 1010.7 - 0.6
17/10:30pm 23.9 21.9 12.6 49 6.7 N 15 24 8 13 1009.8 - 0.6
17/10:17pm 25.8 20.8 11.0 39 8.6 NNW 28 46 15 25 1010.6 - 0.2
17/10:16pm 26.9 21.6 10.0 34 9.7 NNW 28 43 15 23 1010.5 - 0.2
17/10:15pm 26.9 21.6 10.0 34 9.7 NNW 28 43 15 23 1010.5 - 0.2
17/10:00pm 25.9 24.9 10.2 37 9.0 SE 6 13 3 7 1009.3 - 0.2
17/09:30pm 26.9 25.0 9.1 32 10.1 SSE 9 13 5 7 1008.9 - 0.2
17/09:00pm 29.3 27.2 6.8 24 12.4 W 7 11 4 6 1008.7 1005.4 0.2
17/08:30pm 29.7 27.6 6.7 23 12.7 WSW 7 11 4 6 1008.2 - 0.2
17/08:00pm 29.9 27.9 7.1 24 12.7 W 7 9 4 5 1007.9 - 0.2
17/07:30pm 31.1 29.4 7.5 23 13.3 W 6 11 3 6 1007.4 - 0.2
17/07:00pm 32.7 30.5 6.3 19 14.7 WNW 7 11 4 6 1007.0 - 0.2
17/06:30pm 32.9 29.0 3.4 15 15.7 WNW 13 26 7 14 1006.6 - 0.2
17/06:00pm 34.6 29.6 4.4 15 16.5 NNW 20 28 11 15 1006.4 1003.0 0.2
17/05:30pm 33.1 30.2 4.9 17 15.4 WNW 9 15 5 8 1006.5 - 0.2
17/05:00pm 34.4 31.0 6.0 17 15.8 W 13 22 7 12 1006.4 - 0.2
17/04:30pm 34.2 29.9 3.1 14 16.5 NW 15 22 8 12 1006.7 - 0.2
17/04:00pm 34.9 29.9 3.6 14 16.9 WNW 19 30 10 16 1007.0 - 0.2

Other Formats:

Comma delimited format used in spreadsheet applications
http://www.bom.gov.au/fwo/IDN60801/IDN60801.94541.axf

JavaScript Object Notation format (JSON) in row-major order
http://www.bom.gov.au/fwo/IDN60801/IDN60801.94541.json